createdAt,value
2018-07-10T00:01:47.643Z,0.00
2018-07-10T00:04:47.639Z,0.00
2018-07-10T00:07:47.577Z,0.00
2018-07-10T00:10:47.582Z,0.00
2018-07-10T00:13:47.604Z,0.00
2018-07-10T00:16:47.555Z,0.00
2018-07-10T00:19:47.479Z,0.00
2018-07-10T00:22:47.468Z,0.00
2018-07-10T00:25:47.420Z,0.00
2018-07-10T00:28:47.389Z,0.00
2018-07-10T00:31:47.328Z,0.00
2018-07-10T00:34:47.314Z,0.00
2018-07-10T00:37:47.265Z,0.00
2018-07-10T00:40:47.236Z,0.00
2018-07-10T00:43:47.222Z,0.00
2018-07-10T00:46:47.166Z,0.00
2018-07-10T00:49:47.121Z,0.00
2018-07-10T00:52:47.092Z,0.00
2018-07-10T00:55:47.058Z,0.00
2018-07-10T00:58:47.036Z,0.00
2018-07-10T01:01:47.010Z,0.00
2018-07-10T01:04:46.974Z,0.00
2018-07-10T01:07:46.929Z,0.00
2018-07-10T01:10:46.919Z,0.00
2018-07-10T01:13:46.856Z,0.00
2018-07-10T01:16:46.871Z,0.00
2018-07-10T01:19:46.835Z,0.00
2018-07-10T01:22:46.772Z,0.00
2018-07-10T01:25:46.740Z,0.00
2018-07-10T01:28:46.722Z,0.00
2018-07-10T01:31:46.668Z,0.00
2018-07-10T01:34:46.634Z,0.00
2018-07-10T01:37:46.600Z,0.00
2018-07-10T01:40:46.584Z,0.00
2018-07-10T01:43:46.532Z,0.00
2018-07-10T01:46:46.516Z,0.00
2018-07-10T01:49:46.469Z,0.00
2018-07-10T01:52:46.436Z,0.00
2018-07-10T01:55:46.430Z,0.00
2018-07-10T01:58:46.388Z,0.00
2018-07-10T02:01:46.335Z,0.00
2018-07-10T02:04:46.309Z,0.00
2018-07-10T02:07:46.303Z,0.00
2018-07-10T02:10:46.246Z,0.00
2018-07-10T02:13:46.194Z,0.00
2018-07-10T02:16:46.177Z,0.00
2018-07-10T02:19:46.132Z,0.00
2018-07-10T02:22:46.117Z,0.00
2018-07-10T02:25:46.073Z,0.00
2018-07-10T02:28:46.040Z,0.00
2018-07-10T02:31:45.999Z,0.00
2018-07-10T02:34:45.978Z,0.00
2018-07-10T02:37:46.249Z,0.00
2018-07-10T02:40:45.917Z,0.00
2018-07-10T02:43:45.882Z,0.00
2018-07-10T02:46:45.840Z,0.00
2018-07-10T02:49:45.813Z,0.00
2018-07-10T02:52:45.776Z,0.00
2018-07-10T02:55:45.718Z,0.00
2018-07-10T02:58:45.717Z,0.00
2018-07-10T03:01:45.694Z,0.00
2018-07-10T03:04:46.008Z,0.00
2018-07-10T03:07:45.597Z,0.00
2018-07-10T03:10:45.580Z,0.00
2018-07-10T03:13:45.557Z,0.00
2018-07-10T03:16:45.551Z,0.00
2018-07-10T03:19:45.476Z,0.00
2018-07-10T03:22:45.428Z,0.00
2018-07-10T03:25:45.385Z,0.00
2018-07-10T03:28:45.373Z,5.62
2018-07-10T03:31:45.317Z,5.62
2018-07-10T03:34:45.333Z,11.25
2018-07-10T03:37:45.268Z,11.25
2018-07-10T03:40:45.243Z,11.25
2018-07-10T03:43:45.183Z,11.25
2018-07-10T03:46:45.185Z,16.88
2018-07-10T03:49:45.113Z,22.50
2018-07-10T03:52:45.106Z,22.50
2018-07-10T03:55:45.055Z,22.50
2018-07-10T03:58:45.037Z,28.12
2018-07-10T04:01:45.036Z,22.50
2018-07-10T04:04:44.969Z,22.50
2018-07-10T04:07:44.943Z,28.12
2018-07-10T04:10:44.934Z,39.38
2018-07-10T04:13:44.862Z,39.38
2018-07-10T04:16:44.839Z,45.00
2018-07-10T04:19:44.789Z,50.62
2018-07-10T04:22:44.766Z,56.25
2018-07-10T04:25:44.728Z,61.88
2018-07-10T04:28:44.684Z,73.12
2018-07-10T04:31:44.629Z,78.75
2018-07-10T04:34:44.631Z,78.75
2018-07-10T04:37:44.579Z,78.75
2018-07-10T04:40:44.584Z,90.00
2018-07-10T04:43:44.503Z,101.25
2018-07-10T04:46:44.493Z,101.25
2018-07-10T04:49:44.445Z,106.88
2018-07-10T04:52:44.410Z,118.12
2018-07-10T04:55:44.371Z,129.38
2018-07-10T04:58:44.351Z,123.75
2018-07-10T05:01:44.307Z,135.00
2018-07-10T05:04:44.284Z,146.25
2018-07-10T05:07:44.234Z,146.25
2018-07-10T05:10:44.211Z,174.38
2018-07-10T05:13:44.162Z,191.25
2018-07-10T05:16:44.179Z,202.50
2018-07-10T05:19:44.106Z,225.00
2018-07-10T05:22:44.091Z,253.12
2018-07-10T05:25:44.035Z,264.38
2018-07-10T05:28:44.048Z,258.75
2018-07-10T05:31:43.954Z,275.62
2018-07-10T05:34:43.967Z,275.62
2018-07-10T05:37:44.107Z,275.62
2018-07-10T05:40:43.894Z,281.25
2018-07-10T05:43:43.827Z,303.75
2018-07-10T05:46:43.825Z,326.25
2018-07-10T05:49:43.760Z,348.75
2018-07-10T05:52:43.744Z,360.00
2018-07-10T05:55:43.725Z,365.62
2018-07-10T05:58:43.724Z,376.88
2018-07-10T06:01:43.611Z,388.12
2018-07-10T06:04:43.610Z,421.88
2018-07-10T06:07:43.598Z,427.50
2018-07-10T06:10:43.557Z,478.12
2018-07-10T06:13:43.531Z,495.00
2018-07-10T06:16:43.472Z,511.88
2018-07-10T06:19:43.460Z,562.50
2018-07-10T06:22:43.415Z,585.00
2018-07-10T06:25:43.342Z,534.38
2018-07-10T06:28:43.359Z,585.00
2018-07-10T06:31:43.339Z,618.75
2018-07-10T06:34:43.274Z,646.88
2018-07-10T06:37:43.258Z,691.88
2018-07-10T06:40:43.214Z,736.88
2018-07-10T06:43:43.160Z,770.62
2018-07-10T06:46:43.122Z,911.25
2018-07-10T06:49:43.232Z,1119.38
2018-07-10T06:52:43.195Z,1558.12
2018-07-10T06:55:43.031Z,900.00
2018-07-10T06:58:43.008Z,1586.25
2018-07-10T07:01:42.960Z,1878.75
2018-07-10T07:04:43.483Z,776.25
2018-07-10T07:07:42.932Z,1715.62
2018-07-10T07:10:42.879Z,708.75
2018-07-10T07:13:42.833Z,405.00
2018-07-10T07:16:42.869Z,624.38
2018-07-10T07:19:42.762Z,1800.00
2018-07-10T07:22:42.746Z,916.88
2018-07-10T07:25:42.714Z,1935.00
2018-07-10T07:28:42.674Z,1856.25
2018-07-10T07:31:42.643Z,1935.00
2018-07-10T07:34:42.649Z,1220.62
2018-07-10T07:37:42.574Z,607.50
2018-07-10T07:40:42.559Z,528.75
2018-07-10T07:43:42.576Z,1575.00
2018-07-10T07:46:42.481Z,635.62
2018-07-10T07:49:42.453Z,2013.75
2018-07-10T07:52:42.451Z,2075.62
2018-07-10T07:55:42.414Z,2030.62
2018-07-10T07:58:42.385Z,2030.62
2018-07-10T08:01:42.320Z,2255.62
2018-07-10T08:04:42.329Z,2441.25
2018-07-10T08:07:42.383Z,2255.62
2018-07-10T08:10:42.247Z,2435.62
2018-07-10T08:13:42.197Z,2610.00
2018-07-10T08:16:42.182Z,900.00
2018-07-10T08:19:42.187Z,1023.75
2018-07-10T08:22:42.131Z,945.00
2018-07-10T08:25:42.082Z,1012.50
2018-07-10T08:28:42.066Z,1080.00
2018-07-10T08:31:42.043Z,1153.12
2018-07-10T08:34:42.004Z,1310.62
2018-07-10T08:37:41.949Z,1231.88
2018-07-10T08:40:41.937Z,1260.00
2018-07-10T08:43:41.918Z,1355.62
2018-07-10T08:46:41.871Z,2705.62
2018-07-10T08:49:41.858Z,2733.75
2018-07-10T08:52:41.805Z,2896.88
2018-07-10T08:55:41.757Z,2795.62
2018-07-10T08:58:41.756Z,1198.12
2018-07-10T09:01:41.719Z,1226.25
2018-07-10T09:04:41.680Z,2199.38
2018-07-10T09:07:41.651Z,1760.62
2018-07-10T09:10:41.671Z,3363.75
2018-07-10T09:13:41.606Z,2604.38
2018-07-10T09:16:41.557Z,2520.00
2018-07-10T09:19:41.556Z,2002.50
2018-07-10T09:22:41.531Z,1687.50
2018-07-10T09:25:41.454Z,2030.62
2018-07-10T09:28:41.464Z,1968.75
2018-07-10T09:31:42.061Z,1445.62
2018-07-10T09:34:41.492Z,1327.50
2018-07-10T09:37:41.370Z,1018.12
2018-07-10T09:38:42.228Z,933.75
2018-07-10T09:45:13.613Z,652.50
2018-07-10T09:48:13.989Z,523.12
2018-07-10T09:51:13.544Z,511.88
2018-07-10T09:54:13.493Z,562.50
2018-07-10T09:57:13.498Z,793.12
2018-07-10T10:00:13.427Z,945.00
2018-07-10T10:03:13.413Z,1006.88
2018-07-10T10:06:13.368Z,1237.50
2018-07-10T10:09:13.376Z,1051.88
2018-07-10T10:12:13.299Z,967.50
2018-07-10T10:15:13.316Z,961.88
2018-07-10T10:18:13.249Z,871.88
2018-07-10T10:21:13.230Z,838.12
2018-07-10T10:24:13.173Z,793.12
2018-07-10T10:27:13.371Z,540.00
2018-07-10T10:30:13.103Z,579.38
2018-07-10T10:33:13.091Z,781.88
2018-07-10T10:36:13.035Z,832.50
2018-07-10T10:39:13.086Z,1029.38
2018-07-10T10:42:12.983Z,787.50
2018-07-10T10:45:12.951Z,686.25
2018-07-10T10:48:13.188Z,781.88
2018-07-10T10:51:12.890Z,793.12
2018-07-10T10:54:12.854Z,793.12
2018-07-10T10:57:12.833Z,736.88
2018-07-10T11:00:12.845Z,658.12
2018-07-10T11:03:12.754Z,562.50
2018-07-10T11:06:12.706Z,641.25
2018-07-10T11:09:12.697Z,528.75
2018-07-10T11:12:12.639Z,433.12
2018-07-10T11:15:12.631Z,438.75
2018-07-10T11:18:12.797Z,444.38
2018-07-10T11:21:12.545Z,523.12
2018-07-10T11:24:12.528Z,765.00
2018-07-10T11:27:12.501Z,1046.25
2018-07-10T11:30:12.445Z,1248.75
2018-07-10T11:33:12.421Z,1316.25
2018-07-10T11:36:12.608Z,1046.25
2018-07-10T11:39:12.481Z,770.62
2018-07-10T11:42:12.313Z,652.50
2018-07-10T11:45:12.283Z,466.88
2018-07-10T11:48:12.260Z,523.12
2018-07-10T11:51:12.235Z,579.38
2018-07-10T11:54:12.188Z,725.62
2018-07-10T11:57:12.176Z,922.50
2018-07-10T12:00:12.300Z,793.12
2018-07-10T12:03:12.116Z,736.88
2018-07-10T12:06:12.091Z,686.25
2018-07-10T12:09:12.041Z,691.88
2018-07-10T12:12:12.018Z,984.38
2018-07-10T12:15:13.626Z,703.12
2018-07-10T12:18:12.341Z,866.25
2018-07-10T12:21:11.927Z,1237.50
2018-07-10T12:24:11.865Z,1321.88
2018-07-10T12:27:11.837Z,1108.12
2018-07-10T12:30:11.787Z,697.50
2018-07-10T12:33:11.792Z,556.88
2018-07-10T12:36:11.763Z,556.88
2018-07-10T12:39:11.702Z,556.88
2018-07-10T12:42:11.666Z,635.62
2018-07-10T12:45:11.657Z,517.50
2018-07-10T12:48:11.882Z,421.88
2018-07-10T12:51:11.579Z,410.62
2018-07-10T12:54:11.516Z,444.38
2018-07-10T12:57:11.506Z,495.00
2018-07-10T13:00:11.444Z,596.25
2018-07-10T13:03:11.420Z,686.25
2018-07-10T13:06:11.415Z,652.50
2018-07-10T13:09:11.372Z,691.88
2018-07-10T13:12:11.422Z,798.75
2018-07-10T13:15:20.811Z,742.50
2018-07-10T13:18:15.222Z,815.62
2018-07-10T13:21:11.281Z,624.38
2018-07-10T13:24:11.321Z,686.25
2018-07-10T13:28:21.702Z,900.00
2018-07-10T13:31:21.556Z,838.12
2018-07-10T13:34:21.599Z,1102.50
2018-07-10T13:37:21.514Z,1136.25
2018-07-10T13:40:21.344Z,905.62
2018-07-10T13:43:21.478Z,748.12
2018-07-10T13:46:21.432Z,888.75
2018-07-10T13:49:21.350Z,1051.88
2018-07-10T13:52:21.469Z,990.00
2018-07-10T13:55:21.175Z,832.50
2018-07-10T13:58:21.120Z,883.12
2018-07-10T14:01:21.061Z,776.25
2018-07-10T14:04:21.061Z,703.12
2018-07-10T14:07:44.072Z,1096.88
2018-07-10T14:10:21.007Z,511.88
2018-07-10T14:13:21.027Z,511.88
2018-07-10T14:16:20.944Z,624.38
2018-07-10T14:19:20.830Z,900.00
2018-07-10T14:22:21.125Z,753.75
2018-07-10T14:25:20.791Z,556.88
2018-07-10T14:28:20.779Z,461.25
2018-07-10T14:31:21.071Z,382.50
2018-07-10T14:34:20.857Z,517.50
2018-07-10T14:37:20.633Z,562.50
2018-07-10T14:40:20.816Z,388.12
2018-07-10T14:43:20.634Z,315.00
2018-07-10T14:46:20.573Z,309.38
2018-07-10T14:49:20.499Z,208.12
2018-07-10T14:52:20.649Z,135.00
2018-07-10T14:55:20.461Z,230.62
2018-07-10T14:58:20.430Z,230.62
2018-07-10T15:01:20.400Z,180.00
2018-07-10T15:04:20.378Z,185.62
2018-07-10T15:07:20.303Z,168.75
2018-07-10T15:10:20.272Z,191.25
2018-07-10T15:13:20.382Z,185.62
2018-07-10T15:16:20.245Z,157.50
2018-07-10T15:19:20.177Z,163.12
2018-07-10T15:22:20.163Z,253.12
2018-07-10T15:25:20.248Z,326.25
2018-07-10T15:28:20.145Z,427.50
2018-07-10T15:31:20.117Z,461.25
2018-07-10T15:34:21.192Z,315.00
2018-07-10T15:37:20.026Z,196.88
2018-07-10T15:40:19.997Z,180.00
2018-07-10T15:43:19.926Z,140.62
2018-07-10T15:46:20.696Z,146.25
2018-07-10T15:49:20.086Z,180.00
2018-07-10T15:53:31.871Z,202.50
2018-07-10T15:56:31.843Z,686.25
2018-07-10T15:59:31.804Z,736.88
2018-07-10T16:02:31.788Z,427.50
2018-07-10T16:05:31.768Z,410.62
2018-07-10T16:08:31.693Z,343.12
2018-07-10T16:11:31.693Z,770.62
2018-07-10T16:14:31.624Z,461.25
2018-07-10T16:17:31.621Z,523.12
2018-07-10T16:20:31.561Z,376.88
2018-07-10T16:23:31.609Z,630.00
2018-07-10T16:26:31.510Z,275.62
2018-07-10T16:29:31.481Z,573.75
2018-07-10T16:32:31.432Z,708.75
2018-07-10T16:35:31.423Z,894.38
2018-07-10T16:38:31.385Z,1327.50
2018-07-10T16:41:31.365Z,410.62
2018-07-10T16:44:31.300Z,405.00
2018-07-10T16:47:31.294Z,382.50
2018-07-10T16:50:31.255Z,742.50
2018-07-10T16:53:31.233Z,309.38
2018-07-10T16:56:31.164Z,270.00
2018-07-10T16:59:31.157Z,292.50
2018-07-10T17:02:31.096Z,191.25
2018-07-10T17:05:31.077Z,168.75
2018-07-10T17:08:31.085Z,106.88
2018-07-10T17:11:31.019Z,135.00
2018-07-10T17:14:30.967Z,90.00
2018-07-10T17:17:30.935Z,78.75
2018-07-10T17:20:30.972Z,90.00
2018-07-10T17:23:30.882Z,95.62
2018-07-10T17:26:30.836Z,140.62
2018-07-10T17:29:30.812Z,90.00
2018-07-10T17:32:30.760Z,61.88
2018-07-10T17:35:30.789Z,39.38
2018-07-10T17:38:30.717Z,45.00
2018-07-10T17:41:30.698Z,61.88
2018-07-10T17:44:30.633Z,56.25
2018-07-10T17:47:31.239Z,196.88
2018-07-10T17:50:30.563Z,157.50
2018-07-10T17:53:31.264Z,112.50
2018-07-10T17:56:30.504Z,236.25
2018-07-10T17:59:30.481Z,388.12
2018-07-10T18:02:30.421Z,652.50
2018-07-10T18:05:30.426Z,365.62
2018-07-10T18:08:30.369Z,292.50
2018-07-10T18:11:30.359Z,196.88
2018-07-10T18:14:30.297Z,180.00
2018-07-10T18:17:30.281Z,163.12
2018-07-10T18:20:30.238Z,151.88
2018-07-10T18:23:30.213Z,151.88
2018-07-10T18:26:30.316Z,225.00
2018-07-10T18:29:30.176Z,331.88
2018-07-10T18:32:30.091Z,196.88
2018-07-10T18:35:30.193Z,135.00
2018-07-10T18:38:30.111Z,118.12
2018-07-10T18:41:30.090Z,112.50
2018-07-10T18:44:30.044Z,123.75
2018-07-10T18:47:30.016Z,123.75
2018-07-10T18:50:29.937Z,101.25
2018-07-10T18:53:29.923Z,90.00
2018-07-10T18:56:29.881Z,90.00
2018-07-10T18:59:29.846Z,78.75
2018-07-10T19:02:29.800Z,78.75
2018-07-10T19:05:29.784Z,61.88
2018-07-10T19:08:29.691Z,50.62
2018-07-10T19:11:29.705Z,33.75
2018-07-10T19:14:29.680Z,16.88
2018-07-10T19:17:29.641Z,22.50
2018-07-10T19:20:29.574Z,28.12
2018-07-10T19:23:29.536Z,28.12
2018-07-10T19:26:29.569Z,28.12
2018-07-10T19:29:29.516Z,16.88
2018-07-10T19:32:29.486Z,11.25
2018-07-10T19:35:29.410Z,5.62
2018-07-10T19:38:29.389Z,5.62
2018-07-10T19:41:29.364Z,5.62
2018-07-10T19:44:29.290Z,5.62
2018-07-10T19:47:29.300Z,5.62
2018-07-10T19:50:29.269Z,5.62
2018-07-10T19:53:29.238Z,5.62
2018-07-10T19:56:29.174Z,5.62
2018-07-10T19:59:29.168Z,0.00
2018-07-10T20:02:29.096Z,0.00
2018-07-10T20:05:29.110Z,0.00
2018-07-10T20:08:29.042Z,0.00
2018-07-10T20:11:29.019Z,0.00
2018-07-10T20:14:29.041Z,0.00
2018-07-10T20:17:29.015Z,0.00
2018-07-10T20:20:28.892Z,0.00
2018-07-10T20:23:28.990Z,0.00
2018-07-10T20:26:28.870Z,0.00
2018-07-10T20:29:28.794Z,0.00
2018-07-10T20:32:28.752Z,0.00
2018-07-10T20:35:28.739Z,0.00
2018-07-10T20:38:28.687Z,0.00
2018-07-10T20:41:28.665Z,0.00
2018-07-10T20:44:28.633Z,0.00
2018-07-10T20:47:28.656Z,0.00
2018-07-10T20:50:28.556Z,0.00
2018-07-10T20:53:28.559Z,0.00
2018-07-10T20:56:28.482Z,0.00
2018-07-10T20:59:28.473Z,0.00
2018-07-10T21:02:28.417Z,0.00
2018-07-10T21:05:28.428Z,0.00
2018-07-10T21:08:28.352Z,0.00
2018-07-10T21:11:28.354Z,0.00
2018-07-10T21:14:28.300Z,0.00
2018-07-10T21:17:28.285Z,0.00
2018-07-10T21:20:28.210Z,0.00
2018-07-10T21:23:28.233Z,0.00
2018-07-10T21:26:28.160Z,0.00
2018-07-10T21:29:28.138Z,0.00
2018-07-10T21:32:28.145Z,0.00
2018-07-10T21:35:28.085Z,0.00
2018-07-10T21:38:28.020Z,0.00
2018-07-10T21:41:28.022Z,0.00
2018-07-10T21:44:27.960Z,0.00
2018-07-10T21:47:27.944Z,0.00
2018-07-10T21:50:27.887Z,0.00
2018-07-10T21:53:27.887Z,0.00
2018-07-10T21:56:27.923Z,0.00
2018-07-10T21:59:27.822Z,0.00
2018-07-10T22:02:27.766Z,0.00
2018-07-10T22:05:27.728Z,0.00
2018-07-10T22:08:27.715Z,0.00
2018-07-10T22:11:27.668Z,0.00
2018-07-10T22:14:27.637Z,0.00
2018-07-10T22:17:27.605Z,0.00
2018-07-10T22:20:27.558Z,0.00
2018-07-10T22:23:27.587Z,0.00
2018-07-10T22:26:27.565Z,0.00
2018-07-10T22:29:27.492Z,0.00
2018-07-10T22:32:27.430Z,0.00
2018-07-10T22:35:27.430Z,0.00
2018-07-10T22:38:27.361Z,0.00
2018-07-10T22:41:27.322Z,0.00
2018-07-10T22:44:27.282Z,0.00
2018-07-10T22:47:27.272Z,0.00
2018-07-10T22:50:27.214Z,0.00
2018-07-10T22:53:27.223Z,0.00
2018-07-10T22:56:27.159Z,0.00
2018-07-10T22:59:27.130Z,0.00
2018-07-10T23:02:27.743Z,0.00
2018-07-10T23:05:27.058Z,0.00
2018-07-10T23:08:27.012Z,0.00
2018-07-10T23:11:26.998Z,0.00
2018-07-10T23:14:26.968Z,0.00
2018-07-10T23:17:28.693Z,0.00
2018-07-10T23:20:26.874Z,0.00
2018-07-10T23:23:26.869Z,0.00
2018-07-10T23:26:26.824Z,0.00
2018-07-10T23:29:26.789Z,0.00
2018-07-10T23:32:26.747Z,0.00
2018-07-10T23:35:26.750Z,0.00
2018-07-10T23:38:26.688Z,0.00
2018-07-10T23:41:26.656Z,0.00
2018-07-10T23:44:26.625Z,0.00
2018-07-10T23:47:26.605Z,0.00
2018-07-10T23:50:26.548Z,0.00
2018-07-10T23:53:26.518Z,0.00
2018-07-10T23:56:26.479Z,0.00
2018-07-10T23:59:26.459Z,0.00
